Timeline UpdatesTrip UpdatesNews PostsPvt PostsTravel TipsAdmin PostsConv PostsFollowed PostsChat RequestsBlog PostsPNR Posts

Disclaimer
Search
 
 
Thu Jul 31, 2014 04:48:21 ISTHomeTrainsΣChainsAtlasPNRForumGalleryNewsFAQTripsMembersLoginFeedback
No Recent News for this Train
Other Trains in the News **new
Latest...
Diverted via Dankuni and will stop at Kamarkundu from 31/1/14-7/2/14 #979555
Thu Jan 30, 2014 (07:14PM)
⇐ Return Journey: Train# 53131

53132/Muzaffarpur Sealdah Passenger (UnReserved)

Sep 11 2013 (10:52PM)
Change Departure Station:
Change Arrival Station:
Post a Train Travel TipPost a Train Travel Tip **new
Post a Comment/Question/Picture/VideoPost a Comment/Question/Picture/Video
Pantry/Catering
✕ NO Pantry Car
✕ NO Catering
RSA - Rake Sharing
Rake/Coach Composition
ENG-SLR-GEN-GEN-GEN-GEN-GEN-GEN-GEN-SLR
Loco
WDM-2/WDM-3A from MFP to BJU, then, ASN WAM-4/WAG-5A/WAG-5HA from BJU...
Read more...
to SDAH
News    PNR    Forum    Time-Table    Availability    Fare Chart    Map    Arr/Dep History    Trips    Gallery    ΣChains    X/O    Timeline    
Travel Time: 5h 5m    16 halts    Distance: 213 km    Avg Speed: 41 km/hr
Type: Passenger
Zone: ER/Eastern
Departs @ 21:35 (Avg 1h 11m late)
Platform# ???
SMTWTFS
Asansol Junction/ASN 
Arrives @ 02:40 +1 night (Avg 1h 0m late)
Platform# ???
SMTWTFS
Dum Dum Junction/DDJ 

16 halts. 52 intermediate Stations between Asansol Junction and Dum Dum Junction

Show ALL intermediate Stations  Show Old Time-Table

#CodeStation NameX/OArrivesAvgDepartsAvgHaltPFDay#KmSpeedElevZoneAddress
1MFPMuzaffarpur Junction (6)  -07:45+7--1-356.53257mECRMuzaffarpur, Bihar
2NRPANarayanpur Anant (3)X  07:54+1407:55+161m--1-351.74356mECRMuzaffarpur, Bihar
3SLTSilaut  08:03+1708:04+181m--1-346.05857mECRMuzaffarpur, Bihar
4SIHOSiho  08:12+1908:13+221m--1-338.25153mECRNational Highway 28, Bihar
5DOLDholi (2)X  08:21+2208:22+271m--1-331.44052mECRDistt. Muzaffarpur, Bihar
6DUBHDubaha  08:31+2608:32+281m--1-325.44955mECRDubha Station, Bihar
7KRBPKhudiram B Pusa  08:41+3208:42+341m--1-318.04952mECRDistt. Samastipur, Bihar
8KPGMKarpurigram (3)X  08:51+3808:52+451m--1-310.72151mECRState Highway 49, Bihar
9SPJSamastipur Junction (9)X  09:10+4409:20+4310m--1-304.44955mECRSamastipur, Bihar
10UJPUjiarpur (2)X  09:31+1:0009:32+1:021m--1-295.44751mECRSamastipur, Bihar
11NAZJNazirGanj  09:40+1:0409:41+1:091m--1-289.14751mECRNazirGanj, Bihar
12DSSDalsingh Sarai (2)X  09:51+1:0909:52+1:161m21-281.22749mECR06278-221238, Bihar
13STJTSathajagat  10:02+1:1710:03+1:191m--1-276.72449mECRSathajagat, Bihar
14BCABachwara Junction  10:19+1:1310:20+1:241m--1-270.22449mECRBegusarai, Bihar
15TGATeghra (3)XO  10:42+1:1610:43+1:241m--1-261.31148mECRBegusarai, Bihar
16BJUBarauni Junction (9)11:25+1:0211:50+1:1725m--1-253.92649mECRBegusarai, Bihar
17SAEDinkar Gram Simaria (3)  12:04+1:3212:05+1:371m--1-247.919228mECRBegusarai, Bihar
18RJORajendra Pul (1)  12:14+1:5012:15+2:061m11-245.02849mECRSimaria, Bihar
19HTZUHathidah Upper (1)  12:22+2:0212:24+2:012m11-241.81451mECRMurarpur, Bihar
20RDUMRampur Dumra (3)  13:14+1:3313:15+1:351m--1-229.93746mECRNational Highway 80, Bihar
21BRYABarhiya (3)  13:24+1:2313:25+1:241m--1-224.32047mECRBarahiya, Bihar
22MKBMankathaX  13:53+1:2113:55+1:232m--1-214.93347mECRNational Highway 80, Bihar
23LKRLuckeesarai Junction (2)X  14:05+1:2314:07+1:232m--1-209.3652mECRLakhisarai, Bihar
24KIULKiul Junction (5)  14:20+1:0714:30+1:0710m--1-207.93353mECRDist. Lakhisarai, Bihar
25BSQPBansipur  14:38+1:2714:40+1:272m--1-203.61753mECRKiul, Bihar
26MNPMananpur (2)  14:49+1:2314:50+1:261m--1-201.02257mECRState Highway 18, Bihar
27BFMBhaluiX  14:57+1:3214:58+1:341m--1-198.49756mECRState Highway 18, Bihar
28JMUJamui (3)  15:09+1:3215:10+1:341m--1-180.61581mECRState Highway 72, Bihar
29CUXChauraX  15:20+1:3815:21+1:391m--1-178.17979mECRState Highway 18, Bihar
30GHRGidhaur (2)  15:30+1:3915:31+1:531m--1-166.362106mECRState Highway 18, Bihar
31DPXDadpurX  15:38+1:5215:39+1:551m--1-159.013116mECRDadpur, Bihar
32JAJJhajha (4)  16:00+1:2916:10+1:4410m--1-154.644143mECRJhajha, Bihar
33NRGONarganjo Halt (2)X  16:21+1:5816:22+1:591m--1-146.629188mERState Highway 18, Bihar
34STLSimultala (2)  16:44+1:4716:45+1:511m--1-136.047247mERSimultala, Bihar
35LHBLahabon (3)X  16:58+1:5716:59+1:581m--1-125.846259mERDeoghar, Jharkhand
36JSMEJasidih Junction (5)X  17:19+1:5117:22+1:533m--1-110.555271mERJasidih, Jharkhand
37KBQKumrabad RohiniX  17:29+1:5117:30+1:511m--1-104.173231mERKumrabad Rohi, Jharkhand
38SNQSankarpur  17:34+2:2017:35+2:201m--1-99.341242mERDeoghar, Jharkhand
39MUWMathurapur (2)X  17:44+2:1717:45+2:171m--1-93.144261mERDeoghar, Jharkhand
40MDPMadhupur Junction (4)  18:01+1:4718:58+1:1457m--1-81.559254mER06432-224478, Jharkhand
41JRWJoramowX  19:08+1:3319:09+1:331m--1-71.646208mERBarrage on Ajoy River, Jharkhand
42MNCMadankata (2)XO  19:16+1:3219:17+1:321m--1-66.144208mERBarrage on Ajoy River, Jharkhand
43VDSVidyasagar (2)  19:29+1:2919:30+1:301m--1-57.363250mERJamtara, Jharkhand
44JMTJamtara (2)X  19:47+1:3819:48+1:391m21-39.445201mERJamtara, Jharkhand
45CRJChittaranjan (3)  20:07+1:3420:10+1:373m21-25.146182mERMihijam, Jharkhand
46RNPRRupnarayanpur (3)  20:16+1:3820:17+1:381m--1-20.553191mERChittaranjan, West Bengal
47SLSSalanpur (2)X  20:25+1:4020:26+1:401m--1-13.49156mERSalanpur Station, West Bengal
48STNSitarampur Junction (5)X  20:58+1:1721:00+1:242m--1-8.837139mERG T Rd Before Asansol, West Bengal
49BCQBarachak Junction (4)X  21:06+1:3221:07+1:331m--1-5.138127mERdist - bardhaman, West Bengal
50ASN»Asansol Junction (7)»X  21:15+1:1121:35+1:1120m--10.064113mERDist - bardhaman, West Bengal
51RNGRaniGanj (4)X  21:52+1:2221:56+1:264m--118.11392mERRaniganj, West Bengal
52UDLAndal Junction (6)XO  22:30+1:0222:33+1:013m--125.46286mERAndal, West Bengal
53OYRWaria (4)X  22:41+1:2522:42+1:261m--133.64172mERDurgapur, West Bengal
54DGRDurgapur (5)X  22:55+1:0423:00+1:035m--142.45571mERDurgapur, West Bengal
55PANPanagarh (4)X  23:17+1:1123:18+1:121m--158.16570mERKaksa, West Bengal
56KANKhana Junction (5)X  23:50+1:2323:51+1:231m--192.96542mERDist - Bardhaman, West Bengal
57BWNBarddhaman Junction (8)X  00:03+1:2300:08+1:265m--2106.07034mERDist - Barddhaman, West Bengal
58BDCBandel Junction (7)  01:06+2:0501:11+2:065m--2173.23314mERdist - HOOGHLY, West Bengal
59HYGHooghly Ghat (2)  01:18+2:1501:19+2:141m--2177.01417mERdist - Hooghly, West Bengal
60GFAEGarifa (2)  01:25+1:1301:26+1:131m--2178.51915mERState Highway 1, West Bengal
61NHNaihati Junction (5)  01:36+1:4401:44+1:418m--2181.63415mERdist - North 24 paraganas - 743165, West Bengal
62KNRKankinara (3)  01:49+1:2101:51+1:212m--2184.457 ERState Highway 1, West Bengal
63SNRShyamnagar (4)  01:56+5101:57+511m--2189.24916mERDist - North 24 paraganas, West Bengal
64IPIchhapur (4)  02:01+1:3702:02+1:371m--2192.54412mERIchapur, West Bengal
65BPBarrackpore (5)  02:08+1:3502:16+1:308m22196.93212mERDist - 24 paraganas (N), West Bengal
66TGHTitagarh (4)  02:20+1:0802:22+1:082m--2199.14510mERDIST - 24 Paraganas ( North ), West Bengal
67DDJ•Dum Dum Junction (5)•  02:40+1:0002:41+1:001m--2212.6910mERKolkata - 700028, West Bengal
68SDAHKolkata Sealdah (20)  03:25+1:10-72219.2-8mERPh : 033-23503535 (For North: APC Roy Road) Kolkata 700014, West Bengal
Scroll to Top
Scroll to Bottom